Terminal Aerodrome Forecast
Issued by NWS North Platte, NE

Home | Current Version | Previous Version | Graphics & Text | Print | Product List | Glossary On
Versions: 1 2 3 4 5 6 7 8 9 10 11 12 13 14 15 16
000
FTUS43 KLBF 101740
TAFVTN
TAF
KVTN 101740Z 1018/1118 30015G24KT P6SM FEW250
     FM102300 28012G20KT P6SM FEW250
     FM110900 29015G25KT P6SM FEW250
     FM111700 32023G32KT P6SM BKN060=

USA.gov is the U.S. government's official web portal to all federal, state and local government web resources and services.